Palo Verde, CA (92266)

9:04 PM PDT on September 19, 2014 (GMT -0700)
Blythe | Change Station
CLOSE
Current Station
Airport
Location: Blythe,
Elevation: 397 ft
Nearby Weather Stations

Elev 397 ft 33.62 °N, 114.72 °W | Updated 12 minutes ago

Clear
Clear
92 °F
Feels Like 92 °F
N
9
Wind Variable Wind from WSW

Today
High -- | Low -- °F
--% Chance of Precip.
Yesterday
High -- | Low -- °F
Precip. -- in
6:25 AM 6:39 PM
Waning Crescent, 15% visible
Pressure 29.72 in
Visibility 10.0 miles
Clouds Clear
Dew Point 45 °F
Humidity 20%
Rainfall 0.00 in
Snow Depth 0 in , 0 in , 0 in
UV 0 out of 12
Pollen 8.50 out of 12
Ozone Good
Flu Activity Not available.
METAR KBLH 200352Z AUTO 24008KT 10SM CLR 33/07 A2974 RMK AO2 SLP063 T03330072

More Conditions Fewer Conditions

Pressure 29.72 in
Visibility 10.0 miles
Clouds Clear
Dew Point 45 °F
Humidity 20%
Rainfall 0.00 in
Snow Depth 0 in , 0 in , 0 in
UV 0 out of 12
Pollen 8.50 out of 12
Ozone Good
Flu Activity Not available.
METAR KBLH 200352Z AUTO 24008KT 10SM CLR 33/07 A2974 RMK AO2 SLP063 T03330072

More Conditions Fewer Conditions

10-Day Weather Forecast

Almanac

Astronomy

Sep. 19, 2014 Rise Set
Actual Time 6:25 AM PDT 6:39 PM PDT
Civil Twilight 6:00 AM PDT 7:04 PM PDT
Nautical Twilight 5:31 AM PDT 7:33 PM PDT
Astronomical Twilight 5:01 AM PDT 8:02 PM PDT
Moon 2:23 AM PDT (9/19) 4:02 PM PDT (9/19)
Length of Visible Light 13h 04m
Length of Day
12h 14m
Tomorrow will be 2m 2s shorter.
Waning Crescent, 15% of the Moon is Illuminated
Sep 20
Waning Crescent
Sep 24
New
Oct 1
First Quarter
Oct 8
Full
Oct 15
Last Quarter

Today's Extremes

State Highs State Lows

Community

WunderPhotos

Upload Photos

1,754,777 photos uploaded!

WunderBlogs® & News

Nearby

Air Quality

  Air Quality AQ Index Pollutant
Yesterday Good
PM10
Yesterday Good
OZONE
Current Good
OZONE
Saturday Good
PM10
Saturday Good
OZONE
Saturday Good
CO
Saturday Good
NO2

Snow Depth

Station Depth Elevation
Leavitt Meadows 0 in 7200 ft
CSS Lab 0 in 6900 ft
Leavitt Lake 0 in 9400 ft
Blue Lakes 0 in 8000 ft
Adin Mountain 0 in 6200 ft

Earthquake Activity

City Distance Mag. Time & Date
No recent earthquake activity has been reported nearby.
Minimum magnitude displayed is 2.5.

Coastal Water Temperatures

Place Temperature
No Stations Reporting

Nearby Weather Stations